sensor_id;sensor_type;location;lat;lon;timestamp;pressure;altitude;pressure_sealevel;temperature;humidity
60820;BME280;46641;48.904;9.126;2023-02-20T00:01:12;99709.06;;;13.52;59.95
60820;BME280;46641;48.904;9.126;2023-02-20T00:06:03;99703.09;;;13.50;60.38
60820;BME280;46641;48.904;9.126;2023-02-20T00:10:53;99709.19;;;13.51;60.20
60820;BME280;46641;48.904;9.126;2023-02-20T00:15:43;99694.22;;;13.51;60.21
60820;BME280;46641;48.904;9.126;2023-02-20T00:20:34;99689.81;;;13.52;60.13
60820;BME280;46641;48.904;9.126;2023-02-20T00:25:26;99690.66;;;13.52;60.37
60820;BME280;46641;48.904;9.126;2023-02-20T00:30:21;99684.69;;;13.50;60.42
60820;BME280;46641;48.904;9.126;2023-02-20T00:35:12;99707.53;;;13.50;60.22
60820;BME280;46641;48.904;9.126;2023-02-20T00:40:03;99719.84;;;13.49;60.51
60820;BME280;46641;48.904;9.126;2023-02-20T00:44:54;99715.81;;;13.45;60.43
60820;BME280;46641;48.904;9.126;2023-02-20T00:49:45;99711.69;;;13.43;59.98
60820;BME280;46641;48.904;9.126;2023-02-20T00:54:35;99709.16;;;13.41;60.23
60820;BME280;46641;48.904;9.126;2023-02-20T00:59:25;99714.44;;;13.41;60.33
60820;BME280;46641;48.904;9.126;2023-02-20T01:04:16;99723.28;;;13.40;60.63
60820;BME280;46641;48.904;9.126;2023-02-20T01:09:06;99722.47;;;13.40;60.47
60820;BME280;46641;48.904;9.126;2023-02-20T01:13:58;99717.34;;;13.38;60.72
60820;BME280;46641;48.904;9.126;2023-02-20T01:18:49;99712.22;;;13.37;60.97
60820;BME280;46641;48.904;9.126;2023-02-20T01:23:40;99696.56;;;13.35;60.56
60820;BME280;46641;48.904;9.126;2023-02-20T01:28:30;99706.41;;;13.33;60.84
60820;BME280;46641;48.904;9.126;2023-02-20T01:33:21;99696.16;;;13.30;60.80
60820;BME280;46641;48.904;9.126;2023-02-20T01:38:11;99705.00;;;13.29;61.19
60820;BME280;46641;48.904;9.126;2023-02-20T01:43:02;99700.84;;;13.26;60.71
60820;BME280;46641;48.904;9.126;2023-02-20T01:47:54;99702.66;;;13.26;61.02
60820;BME280;46641;48.904;9.126;2023-02-20T01:52:51;99690.56;;;13.23;60.79
60820;BME280;46641;48.904;9.126;2023-02-20T01:57:48;99685.31;;;13.23;60.71
60820;BME280;46641;48.904;9.126;2023-02-20T02:02:43;99677.69;;;13.20;60.93
60820;BME280;46641;48.904;9.126;2023-02-20T02:07:35;99683.06;;;13.19;61.01
60820;BME280;46641;48.904;9.126;2023-02-20T02:12:26;99682.53;;;13.15;60.66
60820;BME280;46641;48.904;9.126;2023-02-20T02:28:29;99676.41;;;13.05;60.89
60820;BME280;46641;48.904;9.126;2023-02-20T02:39:07;99684.72;;;13.00;61.04
60820;BME280;46641;48.904;9.126;2023-02-20T02:54:08;99674.84;;;12.93;61.50
60820;BME280;46641;48.904;9.126;2023-02-20T02:58:59;99659.09;;;12.93;61.68
60820;BME280;46641;48.904;9.126;2023-02-20T03:03:50;99660.19;;;12.90;61.18
60820;BME280;46641;48.904;9.126;2023-02-20T03:08:44;99650.78;;;12.88;61.63
60820;BME280;46641;48.904;9.126;2023-02-20T03:13:49;99661.41;;;12.86;61.14
60820;BME280;46641;48.904;9.126;2023-02-20T03:19:00;99658.38;;;12.81;61.24
60820;BME280;46641;48.904;9.126;2023-02-20T03:23:56;99656.56;;;12.81;61.54
60820;BME280;46641;48.904;9.126;2023-02-20T03:28:56;99653.38;;;12.78;61.24
60820;BME280;46641;48.904;9.126;2023-02-20T03:34:05;99665.81;;;12.76;60.84
60820;BME280;46641;48.904;9.126;2023-02-20T03:39:25;99673.84;;;12.74;61.06
60820;BME280;46641;48.904;9.126;2023-02-20T03:44:38;99667.06;;;12.72;62.03
60820;BME280;46641;48.904;9.126;2023-02-20T03:49:34;99669.13;;;12.68;61.71
60820;BME280;46641;48.904;9.126;2023-02-20T03:54:27;99660.41;;;12.68;61.68
60820;BME280;46641;48.904;9.126;2023-02-20T03:59:31;99656.91;;;12.67;61.29
60820;BME280;46641;48.904;9.126;2023-02-20T04:04:28;99650.00;;;12.66;61.48
60820;BME280;46641;48.904;9.126;2023-02-20T04:09:22;99650.16;;;12.65;61.98
60820;BME280;46641;48.904;9.126;2023-02-20T04:14:18;99640.59;;;12.63;61.92
60820;BME280;46641;48.904;9.126;2023-02-20T04:19:10;99640.59;;;12.63;61.91
60820;BME280;46641;48.904;9.126;2023-02-20T04:24:11;99640.59;;;12.63;61.37
60820;BME280;46641;48.904;9.126;2023-02-20T04:29:03;99636.31;;;12.62;61.95
60820;BME280;46641;48.904;9.126;2023-02-20T04:33:54;99635.59;;;12.60;62.13
60820;BME280;46641;48.904;9.126;2023-02-20T04:38:44;99631.34;;;12.59;62.00
60820;BME280;46641;48.904;9.126;2023-02-20T04:43:35;99637.56;;;12.58;62.01
60820;BME280;46641;48.904;9.126;2023-02-20T04:48:25;99649.72;;;12.59;61.90
60820;BME280;46641;48.904;9.126;2023-02-20T04:53:16;99648.31;;;12.55;62.09
60820;BME280;46641;48.904;9.126;2023-02-20T04:58:06;99646.63;;;12.54;62.08
60820;BME280;46641;48.904;9.126;2023-02-20T05:02:57;99644.16;;;12.53;62.08
60820;BME280;46641;48.904;9.126;2023-02-20T05:07:47;99643.34;;;12.52;61.88
60820;BME280;46641;48.904;9.126;2023-02-20T05:12:38;99644.44;;;12.50;61.90
60820;BME280;46641;48.904;9.126;2023-02-20T05:17:28;99640.25;;;12.47;62.00
60820;BME280;46641;48.904;9.126;2023-02-20T05:22:18;99641.50;;;12.43;62.08
60820;BME280;46641;48.904;9.126;2023-02-20T05:27:09;99640.53;;;12.44;61.99
60820;BME280;46641;48.904;9.126;2023-02-20T05:32:00;99631.81;;;12.44;62.02
60820;BME280;46641;48.904;9.126;2023-02-20T05:36:51;99637.47;;;12.39;62.02
60820;BME280;46641;48.904;9.126;2023-02-20T05:41:41;99640.09;;;12.39;62.12
60820;BME280;46641;48.904;9.126;2023-02-20T05:46:31;99647.97;;;12.39;61.97
60820;BME280;46641;48.904;9.126;2023-02-20T05:51:27;99648.81;;;12.39;61.67
60820;BME280;46641;48.904;9.126;2023-02-20T05:56:18;99647.53;;;12.34;61.94
60820;BME280;46641;48.904;9.126;2023-02-20T06:01:15;99640.72;;;12.31;61.71
60820;BME280;46641;48.904;9.126;2023-02-20T06:06:06;99646.13;;;12.30;62.42
60820;BME280;46641;48.904;9.126;2023-02-20T06:10:56;99643.63;;;12.28;62.36
60820;BME280;46641;48.904;9.126;2023-02-20T06:15:46;99644.72;;;12.26;62.07
60820;BME280;46641;48.904;9.126;2023-02-20T06:20:36;99642.38;;;12.23;61.86
60820;BME280;46641;48.904;9.126;2023-02-20T06:25:27;99651.44;;;12.19;62.25
60820;BME280;46641;48.904;9.126;2023-02-20T06:30:17;99653.38;;;12.16;62.17
60820;BME280;46641;48.904;9.126;2023-02-20T06:35:07;99659.59;;;12.15;62.47
60820;BME280;46641;48.904;9.126;2023-02-20T06:39:58;99656.13;;;12.15;62.43
60820;BME280;46641;48.904;9.126;2023-02-20T06:44:48;99665.94;;;12.13;62.33
60820;BME280;46641;48.904;9.126;2023-02-20T06:49:39;99668.66;;;12.11;62.26
60820;BME280;46641;48.904;9.126;2023-02-20T06:54:30;99678.75;;;12.06;62.60
60820;BME280;46641;48.904;9.126;2023-02-20T06:59:22;99665.88;;;12.03;62.71
60820;BME280;46641;48.904;9.126;2023-02-20T07:04:21;99673.84;;;12.02;62.30
60820;BME280;46641;48.904;9.126;2023-02-20T07:09:13;99681.16;;;11.98;62.61
60820;BME280;46641;48.904;9.126;2023-02-20T07:14:04;99690.00;;;11.97;62.58
60820;BME280;46641;48.904;9.126;2023-02-20T07:18:54;99679.75;;;11.94;62.80
60820;BME280;46641;48.904;9.126;2023-02-20T07:23:45;99678.09;;;11.93;62.69
60820;BME280;46641;48.904;9.126;2023-02-20T07:28:35;99687.72;;;11.92;62.75
60820;BME280;46641;48.904;9.126;2023-02-20T07:33:25;99689.66;;;11.90;63.08
60820;BME280;46641;48.904;9.126;2023-02-20T07:38:15;99693.25;;;11.89;62.88
60820;BME280;46641;48.904;9.126;2023-02-20T07:43:06;99690.03;;;11.86;63.10
60820;BME280;46641;48.904;9.126;2023-02-20T07:47:56;99690.75;;;11.88;63.09
60820;BME280;46641;48.904;9.126;2023-02-20T07:52:47;99673.34;;;11.87;62.89
60820;BME280;46641;48.904;9.126;2023-02-20T07:57:38;99677.88;;;11.85;63.07
60820;BME280;46641;48.904;9.126;2023-02-20T08:02:28;99676.91;;;11.86;62.94
60820;BME280;46641;48.904;9.126;2023-02-20T08:07:18;99672.75;;;11.83;63.09
60820;BME280;46641;48.904;9.126;2023-02-20T08:12:09;99665.59;;;11.85;63.12
60820;BME280;46641;48.904;9.126;2023-02-20T08:16:59;99649.03;;;11.85;63.23
60820;BME280;46641;48.904;9.126;2023-02-20T08:21:49;99664.75;;;11.85;63.03
60820;BME280;46641;48.904;9.126;2023-02-20T08:26:44;99660.34;;;11.85;63.17
60820;BME280;46641;48.904;9.126;2023-02-20T08:31:34;99667.38;;;11.85;63.34
60820;BME280;46641;48.904;9.126;2023-02-20T08:36:25;99670.00;;;11.85;63.27
60820;BME280;46641;48.904;9.126;2023-02-20T08:41:15;99655.94;;;11.86;63.46
60820;BME280;46641;48.904;9.126;2023-02-20T08:46:06;99657.63;;;11.87;63.12
60820;BME280;46641;48.904;9.126;2023-02-20T08:50:56;99649.75;;;11.87;63.63
60820;BME280;46641;48.904;9.126;2023-02-20T08:55:46;99648.66;;;11.89;63.64
60820;BME280;46641;48.904;9.126;2023-02-20T09:00:37;99646.88;;;11.90;63.70
60820;BME280;46641;48.904;9.126;2023-02-20T09:05:27;99655.16;;;11.95;63.42
60820;BME280;46641;48.904;9.126;2023-02-20T09:10:19;99641.94;;;11.97;63.52
60820;BME280;46641;48.904;9.126;2023-02-20T09:15:09;99631.03;;;12.01;63.53
60820;BME280;46641;48.904;9.126;2023-02-20T09:19:59;99629.81;;;12.05;63.53
60820;BME280;46641;48.904;9.126;2023-02-20T09:24:51;99626.41;;;12.14;63.56
60820;BME280;46641;48.904;9.126;2023-02-20T09:29:41;99622.75;;;12.27;63.29
60820;BME280;46641;48.904;9.126;2023-02-20T09:34:33;99616.47;;;12.39;62.70
60820;BME280;46641;48.904;9.126;2023-02-20T09:39:24;99613.19;;;12.47;62.86
60820;BME280;46641;48.904;9.126;2023-02-20T09:44:24;99602.44;;;12.59;62.19
60820;BME280;46641;48.904;9.126;2023-02-20T09:49:21;99604.38;;;12.67;62.64
60820;BME280;46641;48.904;9.126;2023-02-20T09:54:27;99603.59;;;12.76;62.51
60820;BME280;46641;48.904;9.126;2023-02-20T09:59:32;99597.53;;;12.85;62.40
60820;BME280;46641;48.904;9.126;2023-02-20T10:04:29;99591.59;;;12.93;63.19
60820;BME280;46641;48.904;9.126;2023-02-20T10:09:20;99587.59;;;13.08;62.55
60820;BME280;46641;48.904;9.126;2023-02-20T10:14:36;99587.91;;;13.15;62.49
60820;BME280;46641;48.904;9.126;2023-02-20T10:29:47;99567.31;;;13.40;63.65
60820;BME280;46641;48.904;9.126;2023-02-20T10:34:44;99575.22;;;13.49;62.89
60820;BME280;46641;48.904;9.126;2023-02-20T10:39:45;99576.31;;;13.56;63.80
60820;BME280;46641;48.904;9.126;2023-02-20T10:44:57;99572.84;;;13.66;63.73
60820;BME280;46641;48.904;9.126;2023-02-20T10:49:58;99569.91;;;13.78;64.17
60820;BME280;46641;48.904;9.126;2023-02-20T10:55:02;99563.34;;;13.92;63.51
60820;BME280;46641;48.904;9.126;2023-02-20T11:00:03;99568.56;;;14.12;63.15
60820;BME280;46641;48.904;9.126;2023-02-20T11:05:00;99549.56;;;14.18;63.84
60820;BME280;46641;48.904;9.126;2023-02-20T11:09:52;99544.38;;;14.26;64.63
60820;BME280;46641;48.904;9.126;2023-02-20T11:14:44;99538.94;;;14.37;64.35
60820;BME280;46641;48.904;9.126;2023-02-20T11:19:43;99528.63;;;14.54;63.75
60820;BME280;46641;48.904;9.126;2023-02-20T11:24:35;99519.53;;;14.66;63.94
60820;BME280;46641;48.904;9.126;2023-02-20T11:29:34;99518.31;;;14.78;62.70
60820;BME280;46641;48.904;9.126;2023-02-20T11:34:30;99508.22;;;14.91;63.18
60820;BME280;46641;48.904;9.126;2023-02-20T11:39:24;99493.34;;;15.00;63.65
60820;BME280;46641;48.904;9.126;2023-02-20T11:44:21;99491.09;;;15.05;63.96
60820;BME280;46641;48.904;9.126;2023-02-20T11:49:23;99492.66;;;15.16;62.72
60820;BME280;46641;48.904;9.126;2023-02-20T11:54:20;99487.44;;;15.24;63.43
60820;BME280;46641;48.904;9.126;2023-02-20T11:59:35;99476.94;;;15.32;62.42
60820;BME280;46641;48.904;9.126;2023-02-20T12:04:26;99466.28;;;15.42;64.09
60820;BME280;46641;48.904;9.126;2023-02-20T12:09:23;99444.09;;;15.53;63.10
60820;BME280;46641;48.904;9.126;2023-02-20T12:14:15;99439.53;;;15.63;63.81
60820;BME280;46641;48.904;9.126;2023-02-20T12:19:19;99429.88;;;15.72;61.67
60820;BME280;46641;48.904;9.126;2023-02-20T12:24:29;99426.59;;;15.78;63.34
60820;BME280;46641;48.904;9.126;2023-02-20T12:29:42;99414.44;;;15.85;61.71
60820;BME280;46641;48.904;9.126;2023-02-20T12:34:43;99400.91;;;15.88;62.71
60820;BME280;46641;48.904;9.126;2023-02-20T12:40:01;99402.09;;;15.94;61.69
60820;BME280;46641;48.904;9.126;2023-02-20T12:55:23;99368.31;;;16.05;63.10
60820;BME280;46641;48.904;9.126;2023-02-20T13:00:32;99361.84;;;16.08;62.01
60820;BME280;46641;48.904;9.126;2023-02-20T13:05:25;99358.91;;;16.11;63.59
60820;BME280;46641;48.904;9.126;2023-02-20T13:10:23;99344.03;;;16.18;61.84
60820;BME280;46641;48.904;9.126;2023-02-20T13:15:35;99333.34;;;16.20;61.53
60820;BME280;46641;48.904;9.126;2023-02-20T13:20:31;99321.28;;;16.25;62.91
60820;BME280;46641;48.904;9.126;2023-02-20T13:30:20;99301.13;;;16.41;62.47
60820;BME280;46641;48.904;9.126;2023-02-20T13:45:40;99274.06;;;16.55;60.04
60820;BME280;46641;48.904;9.126;2023-02-20T13:50:32;99278.69;;;16.61;61.80
60820;BME280;46641;48.904;9.126;2023-02-20T13:55:24;99268.13;;;16.61;62.29
60820;BME280;46641;48.904;9.126;2023-02-20T14:05:20;99262.16;;;16.67;60.49
60820;BME280;46641;48.904;9.126;2023-02-20T14:10:33;99262.16;;;16.67;59.85
60820;BME280;46641;48.904;9.126;2023-02-20T14:15:24;99272.56;;;16.69;61.62
60820;BME280;46641;48.904;9.126;2023-02-20T14:20:20;99273.22;;;16.79;59.61
60820;BME280;46641;48.904;9.126;2023-02-20T14:30:14;99243.31;;;16.87;57.05
60820;BME280;46641;48.904;9.126;2023-02-20T14:35:14;99250.72;;;16.83;58.84
60820;BME280;46641;48.904;9.126;2023-02-20T14:40:22;99235.88;;;16.82;58.52
60820;BME280;46641;48.904;9.126;2023-02-20T14:45:25;99215.72;;;16.81;57.78
60820;BME280;46641;48.904;9.126;2023-02-20T14:50:18;99221.50;;;16.85;58.29
60820;BME280;46641;48.904;9.126;2023-02-20T14:55:16;99227.59;;;16.85;56.38
60820;BME280;46641;48.904;9.126;2023-02-20T15:05:08;99223.13;;;16.86;58.12
60820;BME280;46641;48.904;9.126;2023-02-20T15:10:01;99213.56;;;16.85;59.38
60820;BME280;46641;48.904;9.126;2023-02-20T15:14:58;99207.13;;;16.87;59.02
60820;BME280;46641;48.904;9.126;2023-02-20T15:19:49;99211.41;;;16.88;59.28
60820;BME280;46641;48.904;9.126;2023-02-20T15:24:41;99208.94;;;16.87;59.45
60820;BME280;46641;48.904;9.126;2023-02-20T15:29:31;99205.94;;;16.90;58.84
60820;BME280;46641;48.904;9.126;2023-02-20T15:34:42;99196.34;;;16.89;57.52
60820;BME280;46641;48.904;9.126;2023-02-20T15:39:38;99200.47;;;16.91;57.14
60820;BME280;46641;48.904;9.126;2023-02-20T15:44:29;99190.06;;;16.90;58.24
60820;BME280;46641;48.904;9.126;2023-02-20T15:49:19;99193.91;;;16.87;58.87
60820;BME280;46641;48.904;9.126;2023-02-20T15:54:15;99175.53;;;16.86;55.65
60820;BME280;46641;48.904;9.126;2023-02-20T15:59:08;99176.38;;;16.86;57.90
60820;BME280;46641;48.904;9.126;2023-02-20T16:04:00;99175.53;;;16.86;57.83
60820;BME280;46641;48.904;9.126;2023-02-20T16:08:52;99166.63;;;16.87;58.26
60820;BME280;46641;48.904;9.126;2023-02-20T16:13:44;99165.78;;;16.86;58.75
60820;BME280;46641;48.904;9.126;2023-02-20T16:18:36;99168.28;;;16.88;58.88
60820;BME280;46641;48.904;9.126;2023-02-20T16:23:26;99170.09;;;16.87;58.51
60820;BME280;46641;48.904;9.126;2023-02-20T16:28:19;99164.81;;;16.87;58.48
60820;BME280;46641;48.904;9.126;2023-02-20T16:33:11;99163.16;;;16.86;58.45
60820;BME280;46641;48.904;9.126;2023-02-20T16:38:02;99169.44;;;16.85;58.49
60820;BME280;46641;48.904;9.126;2023-02-20T16:42:53;99165.31;;;16.82;58.54
60820;BME280;46641;48.904;9.126;2023-02-20T16:47:47;99153.09;;;16.81;58.05
60820;BME280;46641;48.904;9.126;2023-02-20T16:52:39;99156.06;;;16.78;58.73
60820;BME280;46641;48.904;9.126;2023-02-20T16:57:30;99160.03;;;16.74;59.09
60820;BME280;46641;48.904;9.126;2023-02-20T17:02:28;99156.72;;;16.72;58.06
60820;BME280;46641;48.904;9.126;2023-02-20T17:07:19;99158.72;;;16.70;58.67
60820;BME280;46641;48.904;9.126;2023-02-20T17:12:10;99157.41;;;16.66;58.63
60820;BME280;46641;48.904;9.126;2023-02-20T17:17:01;99164.69;;;16.64;58.54
60820;BME280;46641;48.904;9.126;2023-02-20T17:21:51;99148.50;;;16.59;58.45
60820;BME280;46641;48.904;9.126;2023-02-20T17:26:42;99151.50;;;16.56;58.51
60820;BME280;46641;48.904;9.126;2023-02-20T17:31:32;99152.84;;;16.52;58.52
60820;BME280;46641;48.904;9.126;2023-02-20T17:36:23;99158.63;;;16.47;58.49
60820;BME280;46641;48.904;9.126;2023-02-20T17:41:13;99165.09;;;16.45;58.16
60820;BME280;46641;48.904;9.126;2023-02-20T17:46:03;99163.75;;;16.41;58.25
60820;BME280;46641;48.904;9.126;2023-02-20T17:50:54;99164.75;;;16.40;58.38
60820;BME280;46641;48.904;9.126;2023-02-20T17:55:44;99148.22;;;16.38;57.96
60820;BME280;46641;48.904;9.126;2023-02-20T18:00:34;99151.22;;;16.34;57.93
60820;BME280;46641;48.904;9.126;2023-02-20T18:05:25;99158.00;;;16.29;58.09
60820;BME280;46641;48.904;9.126;2023-02-20T18:10:17;99164.78;;;16.23;57.51
60820;BME280;46641;48.904;9.126;2023-02-20T18:15:08;99168.09;;;16.17;58.08
60820;BME280;46641;48.904;9.126;2023-02-20T18:19:58;99167.59;;;16.13;58.06
60820;BME280;46641;48.904;9.126;2023-02-20T18:24:49;99172.72;;;16.07;58.11
60820;BME280;46641;48.904;9.126;2023-02-20T18:29:39;99178.84;;;15.99;58.25
60820;BME280;46641;48.904;9.126;2023-02-20T18:34:29;99182.78;;;15.95;58.31
60820;BME280;46641;48.904;9.126;2023-02-20T18:39:20;99181.47;;;15.91;58.14
60820;BME280;46641;48.904;9.126;2023-02-20T18:44:10;99176.03;;;15.84;58.05
60820;BME280;46641;48.904;9.126;2023-02-20T18:49:02;99174.53;;;15.82;57.78
60820;BME280;46641;48.904;9.126;2023-02-20T18:53:53;99177.00;;;15.75;57.95
60820;BME280;46641;48.904;9.126;2023-02-20T18:58:43;99176.69;;;15.70;58.18
60820;BME280;46641;48.904;9.126;2023-02-20T19:03:34;99170.94;;;15.67;57.79
60820;BME280;46641;48.904;9.126;2023-02-20T19:08:24;99167.09;;;15.61;58.08
60820;BME280;46641;48.904;9.126;2023-02-20T19:13:14;99160.81;;;15.54;58.32
60820;BME280;46641;48.904;9.126;2023-02-20T19:18:05;99165.41;;;15.52;58.23
60820;BME280;46641;48.904;9.126;2023-02-20T19:22:56;99157.16;;;15.47;58.37
60820;BME280;46641;48.904;9.126;2023-02-20T19:27:47;99161.13;;;15.42;58.55
60820;BME280;46641;48.904;9.126;2023-02-20T19:32:37;99157.16;;;15.38;58.45
60820;BME280;46641;48.904;9.126;2023-02-20T19:37:28;99161.13;;;15.34;58.32
60820;BME280;46641;48.904;9.126;2023-02-20T19:42:18;99161.75;;;15.28;58.37
60820;BME280;46641;48.904;9.126;2023-02-20T19:47:08;99160.44;;;15.24;58.44
60820;BME280;46641;48.904;9.126;2023-02-20T19:52:00;99149.53;;;15.19;58.60
60820;BME280;46641;48.904;9.126;2023-02-20T19:56:53;99152.97;;;15.11;58.53
60820;BME280;46641;48.904;9.126;2023-02-20T20:01:52;99151.63;;;15.07;57.28
60820;BME280;46641;48.904;9.126;2023-02-20T20:06:43;99149.63;;;15.01;58.52
60820;BME280;46641;48.904;9.126;2023-02-20T20:11:33;99137.75;;;14.97;58.66
60820;BME280;46641;48.904;9.126;2023-02-20T20:16:24;99142.53;;;14.93;58.78
60820;BME280;46641;48.904;9.126;2023-02-20T20:21:14;99137.75;;;14.89;58.89
60820;BME280;46641;48.904;9.126;2023-02-20T20:26:05;99149.44;;;14.86;58.54
60820;BME280;46641;48.904;9.126;2023-02-20T20:30:55;99155.34;;;14.80;58.71
60820;BME280;46641;48.904;9.126;2023-02-20T20:35:45;99159.28;;;14.76;58.94
60820;BME280;46641;48.904;9.126;2023-02-20T20:40:36;99152.16;;;14.68;59.04
60820;BME280;46641;48.904;9.126;2023-02-20T20:45:26;99150.69;;;14.66;58.93
60820;BME280;46641;48.904;9.126;2023-02-20T20:50:19;99150.31;;;14.61;58.95
60820;BME280;46641;48.904;9.126;2023-02-20T20:55:10;99152.56;;;14.56;59.01
60820;BME280;46641;48.904;9.126;2023-02-20T21:00:05;99136.44;;;14.51;58.83
60820;BME280;46641;48.904;9.126;2023-02-20T21:04:57;99149.19;;;14.45;59.27
60820;BME280;46641;48.904;9.126;2023-02-20T21:09:47;99147.88;;;14.41;59.37
60820;BME280;46641;48.904;9.126;2023-02-20T21:14:38;99148.50;;;14.35;59.65
60820;BME280;46641;48.904;9.126;2023-02-20T21:19:29;99156.69;;;14.32;59.41
60820;BME280;46641;48.904;9.126;2023-02-20T21:24:20;99146.66;;;14.27;59.56
60820;BME280;46641;48.904;9.126;2023-02-20T21:29:10;99149.72;;;14.23;59.41
60820;BME280;46641;48.904;9.126;2023-02-20T21:34:01;99149.53;;;14.16;59.53
60820;BME280;46641;48.904;9.126;2023-02-20T21:38:51;99149.16;;;14.11;60.00
60820;BME280;46641;48.904;9.126;2023-02-20T21:43:41;99147.66;;;14.09;59.82
60820;BME280;46641;48.904;9.126;2023-02-20T21:48:50;99134.81;;;14.06;59.85
60820;BME280;46641;48.904;9.126;2023-02-20T21:53:40;99137.06;;;14.00;59.84
60820;BME280;46641;48.904;9.126;2023-02-20T21:58:31;99134.91;;;13.96;60.03
60820;BME280;46641;48.904;9.126;2023-02-20T22:03:39;99134.69;;;13.89;60.31
60820;BME280;46641;48.904;9.126;2023-02-20T22:08:30;99129.91;;;13.85;60.02
60820;BME280;46641;48.904;9.126;2023-02-20T22:13:38;99132.97;;;13.80;60.05
60820;BME280;46641;48.904;9.126;2023-02-20T22:18:47;99129.00;;;13.76;59.72
60820;BME280;46641;48.904;9.126;2023-02-20T22:23:56;99129.63;;;13.70;59.97
60820;BME280;46641;48.904;9.126;2023-02-20T22:29:05;99129.91;;;13.67;60.39
60820;BME280;46641;48.904;9.126;2023-02-20T22:34:14;99135.47;;;13.64;60.24
60820;BME280;46641;48.904;9.126;2023-02-20T22:39:23;99128.88;;;13.60;60.11
60820;BME280;46641;48.904;9.126;2023-02-20T22:44:32;99136.25;;;13.56;60.38
60820;BME280;46641;48.904;9.126;2023-02-20T22:49:41;99129.78;;;13.50;60.61
60820;BME280;46641;48.904;9.126;2023-02-20T22:54:49;99119.03;;;13.44;60.62
60820;BME280;46641;48.904;9.126;2023-02-20T22:59:59;99115.88;;;13.40;60.57
60820;BME280;46641;48.904;9.126;2023-02-20T23:05:07;99111.91;;;13.36;60.68
60820;BME280;46641;48.904;9.126;2023-02-20T23:10:17;99114.84;;;13.33;60.63
60820;BME280;46641;48.904;9.126;2023-02-20T23:15:25;99102.00;;;13.30;60.89
60820;BME280;46641;48.904;9.126;2023-02-20T23:20:34;99099.78;;;13.25;60.59
60820;BME280;46641;48.904;9.126;2023-02-20T23:25:43;99102.84;;;13.21;60.77
60820;BME280;46641;48.904;9.126;2023-02-20T23:30:52;99106.75;;;13.17;60.89
60820;BME280;46641;48.904;9.126;2023-02-20T23:36:01;99098.34;;;13.13;61.14
60820;BME280;46641;48.904;9.126;2023-02-20T23:41:09;99110.13;;;13.09;60.93
60820;BME280;46641;48.904;9.126;2023-02-20T23:46:18;99100.75;;;13.06;60.96
60820;BME280;46641;48.904;9.126;2023-02-20T23:51:27;99095.09;;;13.01;60.97
60820;BME280;46641;48.904;9.126;2023-02-20T23:56:36;99101.34;;;13.00;60.87
